GLO2044 SBGL-SBCT
Flight info
| Callsign | GLO2044 |
|---|---|
| Flight time | N/A |
| Altitude | 38000 |
| Route | NAXOP UZ45 RAXIT |
| Aircraft | B38M/M-DFGHIJ4J7KLORWXY/LB1 |
Departure
| Time | N/A |
|---|---|
| Airport | Rio Galeão – Tom Jobim International Airport (SBGL) |
Arrival
| Time | 2026-04-27 08:22 |
|---|---|
| Airport | Curitiba-Afonso Pena International Airport (SBCT) |
| Time | Latitude | Longitude | Altitude | Speed | Heading |
|---|---|---|---|---|---|
| 2026-04-27 08:04 | -25.20685 | -48.05913 | 20330 ft | 312 kts | 250° |
| 2026-04-27 08:04 | -25.21603 | -48.08094 | 20022 ft | 313 kts | 250° |
| 2026-04-27 08:04 | -25.22519 | -48.10272 | 19704 ft | 313 kts | 250° |
| 2026-04-27 08:04 | -25.23436 | -48.12453 | 19400 ft | 312 kts | 250° |
| 2026-04-27 08:05 | -25.24350 | -48.14630 | 19085 ft | 312 kts | 250° |
| 2026-04-27 08:05 | -25.25261 | -48.16796 | 18770 ft | 309 kts | 250° |
| 2026-04-27 08:05 | -25.26162 | -48.18945 | 18459 ft | 307 kts | 250° |
| 2026-04-27 08:05 | -25.27058 | -48.21078 | 18136 ft | 305 kts | 250° |
| 2026-04-27 08:06 | -25.27937 | -48.23177 | 17782 ft | 303 kts | 250° |
| 2026-04-27 08:06 | -25.28817 | -48.25277 | 17462 ft | 299 kts | 250° |
| 2026-04-27 08:06 | -25.29686 | -48.27350 | 17160 ft | 296 kts | 249° |
| 2026-04-27 08:06 | -25.30545 | -48.29401 | 16858 ft | 292 kts | 249° |
| 2026-04-27 08:07 | -25.31397 | -48.31437 | 16568 ft | 289 kts | 249° |
| 2026-04-27 08:07 | -25.32237 | -48.33445 | 16269 ft | 286 kts | 249° |
| 2026-04-27 08:07 | -25.33066 | -48.35429 | 15978 ft | 283 kts | 249° |
| 2026-04-27 08:07 | -25.33884 | -48.37386 | 15754 ft | 277 kts | 249° |
| 2026-04-27 08:08 | -25.34679 | -48.39289 | 15624 ft | 268 kts | 249° |
| 2026-04-27 08:08 | -25.35447 | -48.41128 | 15486 ft | 259 kts | 249° |
| 2026-04-27 08:08 | -25.36191 | -48.42909 | 15358 ft | 250 kts | 249° |
| 2026-04-27 08:08 | -25.36907 | -48.44626 | 15234 ft | 241 kts | 249° |
| 2026-04-27 08:09 | -25.37596 | -48.46278 | 15116 ft | 232 kts | 249° |
| 2026-04-27 08:09 | -25.38261 | -48.47873 | 14917 ft | 229 kts | 249° |
| 2026-04-27 08:09 | -25.38939 | -48.49501 | 14661 ft | 236 kts | 248° |
| 2026-04-27 08:09 | -25.39633 | -48.51168 | 14404 ft | 240 kts | 248° |
| 2026-04-27 08:10 | -25.40331 | -48.52845 | 14156 ft | 240 kts | 248° |
| 2026-04-27 08:10 | -25.41030 | -48.54523 | 13888 ft | 240 kts | 248° |
| 2026-04-27 08:10 | -25.41721 | -48.56181 | 13610 ft | 240 kts | 248° |
| 2026-04-27 08:10 | -25.42420 | -48.57864 | 13301 ft | 241 kts | 248° |
| 2026-04-27 08:11 | -25.43120 | -48.59546 | 13026 ft | 240 kts | 247° |
| 2026-04-27 08:11 | -25.43817 | -48.61223 | 12750 ft | 239 kts | 248° |
| 2026-04-27 08:11 | -25.44508 | -48.62888 | 12474 ft | 237 kts | 248° |
| 2026-04-27 08:11 | -25.45193 | -48.64538 | 12204 ft | 235 kts | 248° |
| 2026-04-27 08:12 | -25.45871 | -48.66172 | 11936 ft | 232 kts | 248° |
| 2026-04-27 08:12 | -25.46540 | -48.67784 | 11677 ft | 229 kts | 249° |
| 2026-04-27 08:12 | -25.47200 | -48.69374 | 11420 ft | 226 kts | 248° |
| 2026-04-27 08:12 | -25.47851 | -48.70943 | 11190 ft | 223 kts | 249° |
| 2026-04-27 08:13 | -25.48501 | -48.72512 | 10936 ft | 228 kts | 249° |
| 2026-04-27 08:13 | -25.49170 | -48.74127 | 10675 ft | 233 kts | 249° |
| 2026-04-27 08:13 | -25.49851 | -48.75771 | 10403 ft | 236 kts | 249° |
| 2026-04-27 08:13 | -25.50537 | -48.77429 | 10149 ft | 238 kts | 249° |
| 2026-04-27 08:14 | -25.51231 | -48.79103 | 9882 ft | 239 kts | 249° |
| 2026-04-27 08:14 | -25.51924 | -48.80780 | 9581 ft | 240 kts | 249° |
| 2026-04-27 08:14 | -25.52616 | -48.82452 | 9302 ft | 238 kts | 249° |
| 2026-04-27 08:14 | -25.53304 | -48.84115 | 9029 ft | 237 kts | 249° |
| 2026-04-27 08:15 | -25.53987 | -48.85766 | 8765 ft | 235 kts | 248° |
| 2026-04-27 08:15 | -25.54665 | -48.87407 | 8503 ft | 233 kts | 249° |
| 2026-04-27 08:15 | -25.55333 | -48.89024 | 8301 ft | 229 kts | 249° |
| 2026-04-27 08:15 | -25.55992 | -48.90619 | 8060 ft | 226 kts | 249° |
| 2026-04-27 08:16 | -25.56641 | -48.92195 | 7814 ft | 224 kts | 248° |
| 2026-04-27 08:16 | -25.57286 | -48.93760 | 7582 ft | 221 kts | 249° |
| 2026-04-27 08:16 | -25.57934 | -48.95293 | 7315 ft | 220 kts | 243° |
| 2026-04-27 08:16 | -25.58901 | -48.96567 | 7167 ft | 217 kts | 230° |
| 2026-04-27 08:17 | -25.59944 | -48.97718 | 7054 ft | 207 kts | 229° |
| 2026-04-27 08:17 | -25.60942 | -48.98810 | 6926 ft | 196 kts | 229° |
| 2026-04-27 08:17 | -25.61878 | -48.99831 | 6807 ft | 184 kts | 229° |
| 2026-04-27 08:17 | -25.62785 | -49.00813 | 6704 ft | 181 kts | 229° |
| 2026-04-27 08:18 | -25.63685 | -49.01787 | 6590 ft | 180 kts | 230° |
| 2026-04-27 08:18 | -25.64298 | -49.02942 | 6363 ft | 171 kts | 261° |
| 2026-04-27 08:18 | -25.64212 | -49.04225 | 6127 ft | 167 kts | 290° |
| 2026-04-27 08:18 | -25.63594 | -49.05284 | 5918 ft | 164 kts | 307° |
| 2026-04-27 08:19 | -25.62868 | -49.06221 | 5684 ft | 157 kts | 308° |
| 2026-04-27 08:19 | -25.62135 | -49.07101 | 5461 ft | 155 kts | 309° |
| 2026-04-27 08:19 | -25.61387 | -49.07965 | 5220 ft | 156 kts | 310° |
| 2026-04-27 08:19 | -25.60626 | -49.08831 | 4996 ft | 157 kts | 311° |
| 2026-04-27 08:20 | -25.59854 | -49.09701 | 4802 ft | 159 kts | 311° |
| 2026-04-27 08:20 | -25.59078 | -49.10575 | 4580 ft | 159 kts | 311° |
| 2026-04-27 08:20 | -25.58299 | -49.11453 | 4367 ft | 162 kts | 311° |
| 2026-04-27 08:20 | -25.57507 | -49.12342 | 4152 ft | 161 kts | 312° |
| 2026-04-27 08:21 | -25.56723 | -49.13226 | 3929 ft | 161 kts | 313° |
| 2026-04-27 08:21 | -25.55938 | -49.14107 | 3714 ft | 160 kts | 314° |
| 2026-04-27 08:21 | -25.55161 | -49.14983 | 3498 ft | 160 kts | 314° |
| 2026-04-27 08:21 | -25.54389 | -49.15853 | 3287 ft | 156 kts | 315° |
| 2026-04-27 08:22 | -25.53647 | -49.16680 | 3052 ft | 149 kts | 315° |
| 2026-04-27 08:22 | -25.52991 | -49.17416 | 2995 ft | 108 kts | 315° |
| 2026-04-27 08:22 | -25.52616 | -49.17834 | 2991 ft | 33 kts | 315° |
| 2026-04-27 08:22 | -25.52524 | -49.17945 | 2994 ft | 11 kts | 295° |
| 2026-04-27 08:23 | -25.52560 | -49.18003 | 2994 ft | 12 kts | 180° |
| 2026-04-27 08:23 | -25.52657 | -49.18000 | 2992 ft | 16 kts | 178° |
| 2026-04-27 08:23 | -25.52788 | -49.17994 | 2988 ft | 21 kts | 177° |
| 2026-04-27 08:23 | -25.52910 | -49.17936 | 2988 ft | 21 kts | 136° |
| 2026-04-27 08:24 | -25.52979 | -49.17800 | 2988 ft | 22 kts | 91° |
| 2026-04-27 08:24 | -25.52995 | -49.17635 | 2991 ft | 20 kts | 130° |
| 2026-04-27 08:24 | -25.53092 | -49.17528 | 2994 ft | 20 kts | 135° |
| 2026-04-27 08:24 | -25.53192 | -49.17415 | 2995 ft | 21 kts | 134° |
| 2026-04-27 08:25 | -25.53300 | -49.17294 | 2996 ft | 23 kts | 134° |
| 2026-04-27 08:25 | -25.53417 | -49.17163 | 2993 ft | 18 kts | 134° |
| 2026-04-27 08:25 | -25.53489 | -49.17146 | 2993 ft | 11 kts | 227° |
| 2026-04-27 08:25 | -25.53553 | -49.17131 | 2993 ft | 12 kts | 136° |
| 2026-04-27 08:26 | -25.53620 | -49.17068 | 2993 ft | 14 kts | 147° |
| 2026-04-27 08:26 | -25.53649 | -49.17046 | 2994 ft | 0 kts | 169° |
| 2026-04-27 08:26 | -25.53655 | -49.17047 | 2994 ft | 2 kts | 186° |
| 2026-04-27 08:26 | -25.53666 | -49.17054 | 2995 ft | 2 kts | 220° |
| 2026-04-27 08:27 | -25.53686 | -49.17076 | 2996 ft | 0 kts | 225° |
| 2026-04-27 08:27 | -25.53691 | -49.17081 | 2996 ft | 0 kts | 225° |